Coosawatchie, South Carolina
Current Conditions -  °F | °C
As of 2:56 AM on Monday 22 Dec 2014 (Local Time) from KNBC Reporting Station
Overcast Overcast  
Wind Chill: 48°   Ceiling: 500
Heat Index: 48°   Visibility: 8mi
Dew Point: 47°   Wind: 3mph
Humidity: 96%   Direction: 20°NNE
Pressure: 30.06"   Gusts: NA
Location:  32.59°N, 80.93°W
Report Text: KNBC 220656Z AUTO 02003KT 8SM OVC005 09/08 A3006 RMK AO2 RAE08 SLP181 P0001 T00890083
Loading
Personal Weather Stations






























Interactive Weather Map New forecast layout! Learn more

10-Day Weather Forecast

Advertisements
Track Severe Weather on mobile